Bow Jubail — LAYZ4 — position and weather

sailwx.info

Track history (hours):
 
Tides and Currents Weather Stations Pressure Air Temp Water Temp Dewpoint Dewpoint Depression Visibility Wind Speed Wind Dir Waves Ship Positions

Bow Jubail

Last reported at 2018-Feb-15 08:59 UTC. Time now 2018-Feb-19 04:24 UTC.
Position N 28°19' W 093°02'.

Length 183 m; draft 8 m.

Type: Ship (hazmat cat B). MMSI: 259757000.

Date/timePositionNaut miles runAvg speedWind from/ knotsBaromVisibWave heightAir tempDewpointWater temp
2018-Feb-15 08:59N 28°19' W 093°02'4314.4
2018-Feb-15 06:02N 28°43' W 093°42'514.3
2018-Feb-15 05:42N 28°45' W 093°47'514.4
2018-Feb-15 05:20N 28°47' W 093°52'514.2
2018-Feb-15 05:00N 28°49' W 093°57'713.9
2018-Feb-15 04:31N 28°53' W 094°03'814.2
2018-Feb-15 03:59N 28°59' W 094°09'714.2
2018-Feb-15 03:30N 29°03' W 094°15'714.0
2018-Feb-15 02:59N 29°07' W 094°22'713.9
2018-Feb-15 02:30N 29°10' W 094°29'714.2
2018-Feb-15 01:59N 29°16' W 094°35'712.2
2018-Feb-15 01:27N 29°20' W 094°40'511.2
2018-Feb-15 00:58N 29°21' W 094°47'610.5
2018-Feb-15 00:21N 29°26' W 094°50'410.6
2018-Feb-15 00:00N 29°30' W 094°52'510.9
2018-Feb-14 23:30N 29°34' W 094°55'610.8
2018-Feb-14 22:59N 29°39' W 094°58'4 9.1
2018-Feb-14 22:30N 29°43' W 095°01'4 7.5
2018-Feb-14 22:00N 29°46' W 095°04'2 0.0
2018-Feb-12 22:08N 29°45' W 095°06'0 3.1
2018-Feb-12 21:59N 29°45' W 095°06'3 5.1
2018-Feb-12 21:29N 29°44' W 095°03'3 5.8
2018-Feb-12 21:00N 29°42' W 095°01'5 9.5
2018-Feb-12 20:30N 29°38' W 094°58'510.9
2018-Feb-12 20:00N 29°33' W 094°55'711.9
2018-Feb-12 19:24N 29°27' W 094°51'27 1.4
2018-Feb-12 00:16N 29°08' W 094°30'0 0.0
2018-Feb-11 23:52N 29°08' W 094°30'0 0.0
2018-Feb-11 16:07N 29°08' W 094°29'0 0.0
2018-Feb-11 15:43N 29°08' W 094°30'0 0.0
2018-Feb-11 12:52N 29°08' W 094°30'0 0.0
2018-Feb-11 12:22N 29°08' W 094°30'  
2018-Feb-06 00:03N 29°22' W 094°55'1 4.1
2018-Feb-05 23:49N 29°22' W 094°53'1 4.5
2018-Feb-05 23:30N 29°23' W 094°52'3 3.2
2018-Feb-05 22:33N 29°24' W 094°49'114.0
2018-Feb-05 22:30N 29°25' W 094°49'1412.8
2018-Feb-05 21:24N 29°37' W 094°57'511.4
2018-Feb-05 21:00N 29°41' W 094°59'7 7.2
2018-Feb-05 20:00N 29°45' W 095°06'2 3.4
2018-Feb-05 19:30N 29°44' W 095°08'  
Track history (hours):
 
Tides and Currents Weather Stations Pressure Air Temp Water Temp Dewpoint Dewpoint Depression Visibility Wind Speed Wind Dir Waves Ship Positions

Bow Jubail

Last reported at 2018-Feb-15 08:59 UTC. Time now 2018-Feb-19 04:24 UTC.
Position N 28°19' W 093°02'.

Length 183 m; draft 8 m.

Type: Ship (hazmat cat B). MMSI: 259757000.

Date/timePositionNaut miles runAvg speedWind from/ knotsBaromVisibWave heightAir tempDewpointWater temp
2018-Feb-15 08:59N 28°19' W 093°02'4314.4
2018-Feb-15 06:02N 28°43' W 093°42'514.3
2018-Feb-15 05:42N 28°45' W 093°47'514.4
2018-Feb-15 05:20N 28°47' W 093°52'514.2
2018-Feb-15 05:00N 28°49' W 093°57'713.9
2018-Feb-15 04:31N 28°53' W 094°03'814.2
2018-Feb-15 03:59N 28°59' W 094°09'714.2
2018-Feb-15 03:30N 29°03' W 094°15'714.0
2018-Feb-15 02:59N 29°07' W 094°22'713.9
2018-Feb-15 02:30N 29°10' W 094°29'714.2
2018-Feb-15 01:59N 29°16' W 094°35'712.2
2018-Feb-15 01:27N 29°20' W 094°40'511.2
2018-Feb-15 00:58N 29°21' W 094°47'610.5
2018-Feb-15 00:21N 29°26' W 094°50'410.6
2018-Feb-15 00:00N 29°30' W 094°52'510.9
2018-Feb-14 23:30N 29°34' W 094°55'610.8
2018-Feb-14 22:59N 29°39' W 094°58'4 9.1
2018-Feb-14 22:30N 29°43' W 095°01'4 7.5
2018-Feb-14 22:00N 29°46' W 095°04'2 0.0
2018-Feb-12 22:08N 29°45' W 095°06'0 3.1
2018-Feb-12 21:59N 29°45' W 095°06'3 5.1
2018-Feb-12 21:29N 29°44' W 095°03'3 5.8
2018-Feb-12 21:00N 29°42' W 095°01'5 9.5
2018-Feb-12 20:30N 29°38' W 094°58'510.9
2018-Feb-12 20:00N 29°33' W 094°55'711.9
2018-Feb-12 19:24N 29°27' W 094°51'27 1.4
2018-Feb-12 00:16N 29°08' W 094°30'0 0.0
2018-Feb-11 23:52N 29°08' W 094°30'0 0.0
2018-Feb-11 16:07N 29°08' W 094°29'0 0.0
2018-Feb-11 15:43N 29°08' W 094°30'0 0.0
2018-Feb-11 12:52N 29°08' W 094°30'0 0.0
2018-Feb-11 12:22N 29°08' W 094°30'  
2018-Feb-06 00:03N 29°22' W 094°55'1 4.1
2018-Feb-05 23:49N 29°22' W 094°53'1 4.5
2018-Feb-05 23:30N 29°23' W 094°52'3 3.2
2018-Feb-05 22:33N 29°24' W 094°49'114.0
2018-Feb-05 22:30N 29°25' W 094°49'1412.8
2018-Feb-05 21:24N 29°37' W 094°57'511.4
2018-Feb-05 21:00N 29°41' W 094°59'7 7.2
2018-Feb-05 20:00N 29°45' W 095°06'2 3.4
2018-Feb-05 19:30N 29°44' W 095°08'  

Dump ship's entire track history